sensor_id;sensor_type;location;lat;lon;timestamp;temperature;humidity
65146;DHT22;51730;56.950;24.126;2022-09-29T00:01:02;8.70;99.90
65146;DHT22;51730;56.950;24.126;2022-09-29T00:03:30;8.70;99.90
65146;DHT22;51730;56.950;24.126;2022-09-29T00:05:57;8.80;99.90
65146;DHT22;51730;56.950;24.126;2022-09-29T00:08:27;8.80;99.90
65146;DHT22;51730;56.950;24.126;2022-09-29T00:10:54;8.90;99.90
65146;DHT22;51730;56.950;24.126;2022-09-29T00:13:21;8.70;99.90
65146;DHT22;51730;56.950;24.126;2022-09-29T00:15:59;8.70;99.90
65146;DHT22;51730;56.950;24.126;2022-09-29T00:18:28;8.60;99.90
65146;DHT22;51730;56.950;24.126;2022-09-29T00:21:05;8.60;99.90
65146;DHT22;51730;56.950;24.126;2022-09-29T00:23:33;8.60;99.90
65146;DHT22;51730;56.950;24.126;2022-09-29T00:28:30;8.60;99.90
65146;DHT22;51730;56.950;24.126;2022-09-29T00:30:59;8.70;99.90
65146;DHT22;51730;56.950;24.126;2022-09-29T00:33:31;8.70;99.90
65146;DHT22;51730;56.950;24.126;2022-09-29T00:35:59;8.80;99.90
65146;DHT22;51730;56.950;24.126;2022-09-29T00:38:27;8.80;99.90
65146;DHT22;51730;56.950;24.126;2022-09-29T00:40:55;8.80;99.90
65146;DHT22;51730;56.950;24.126;2022-09-29T00:43:45;8.80;99.90
65146;DHT22;51730;56.950;24.126;2022-09-29T00:46:11;8.80;99.90
65146;DHT22;51730;56.950;24.126;2022-09-29T00:48:40;8.70;99.90
65146;DHT22;51730;56.950;24.126;2022-09-29T00:51:07;8.70;99.90
65146;DHT22;51730;56.950;24.126;2022-09-29T00:53:34;8.70;99.90
65146;DHT22;51730;56.950;24.126;2022-09-29T00:56:04;8.70;99.90
65146;DHT22;51730;56.950;24.126;2022-09-29T00:59:17;8.60;99.90
65146;DHT22;51730;56.950;24.126;2022-09-29T01:01:24;8.50;99.90
65146;DHT22;51730;56.950;24.126;2022-09-29T01:03:55;8.60;99.90
65146;DHT22;51730;56.950;24.126;2022-09-29T01:06:28;8.60;99.90
65146;DHT22;51730;56.950;24.126;2022-09-29T01:09:03;8.60;99.90
65146;DHT22;51730;56.950;24.126;2022-09-29T01:11:31;8.70;99.90
65146;DHT22;51730;56.950;24.126;2022-09-29T01:14:00;8.70;99.90
65146;DHT22;51730;56.950;24.126;2022-09-29T01:16:34;8.70;99.90
65146;DHT22;51730;56.950;24.126;2022-09-29T01:19:26;8.60;99.90
65146;DHT22;51730;56.950;24.126;2022-09-29T01:38:41;8.60;99.90
65146;DHT22;51730;56.950;24.126;2022-09-29T01:41:14;8.50;99.90
65146;DHT22;51730;56.950;24.126;2022-09-29T01:46:43;8.40;99.90
65146;DHT22;51730;56.950;24.126;2022-09-29T01:49:13;8.50;99.90
65146;DHT22;51730;56.950;24.126;2022-09-29T01:51:59;8.50;99.90
65146;DHT22;51730;56.950;24.126;2022-09-29T01:54:36;8.40;99.90
65146;DHT22;51730;56.950;24.126;2022-09-29T01:57:09;8.40;99.90
65146;DHT22;51730;56.950;24.126;2022-09-29T02:02:08;8.50;99.90
65146;DHT22;51730;56.950;24.126;2022-09-29T02:04:43;8.50;99.90
65146;DHT22;51730;56.950;24.126;2022-09-29T02:07:18;8.50;99.90
65146;DHT22;51730;56.950;24.126;2022-09-29T02:09:49;8.50;99.90
65146;DHT22;51730;56.950;24.126;2022-09-29T02:12:22;8.50;99.90
65146;DHT22;51730;56.950;24.126;2022-09-29T02:14:52;8.40;99.90
65146;DHT22;51730;56.950;24.126;2022-09-29T02:17:32;8.60;99.90
65146;DHT22;51730;56.950;24.126;2022-09-29T02:20:00;8.50;99.90
65146;DHT22;51730;56.950;24.126;2022-09-29T02:22:27;8.50;99.90
65146;DHT22;51730;56.950;24.126;2022-09-29T02:24:56;8.50;99.90
65146;DHT22;51730;56.950;24.126;2022-09-29T02:27:26;8.60;99.90
65146;DHT22;51730;56.950;24.126;2022-09-29T02:29:56;8.50;99.90
65146;DHT22;51730;56.950;24.126;2022-09-29T02:32:25;8.60;99.90
65146;DHT22;51730;56.950;24.126;2022-09-29T02:34:53;8.60;99.90
65146;DHT22;51730;56.950;24.126;2022-09-29T02:37:39;8.60;99.90
65146;DHT22;51730;56.950;24.126;2022-09-29T02:48:58;8.30;99.90
65146;DHT22;51730;56.950;24.126;2022-09-29T02:51:35;8.30;99.90
65146;DHT22;51730;56.950;24.126;2022-09-29T02:54:21;8.30;99.90
65146;DHT22;51730;56.950;24.126;2022-09-29T02:59:41;8.30;99.90
65146;DHT22;51730;56.950;24.126;2022-09-29T03:02:13;8.20;99.90
65146;DHT22;51730;56.950;24.126;2022-09-29T03:04:41;8.20;99.90
65146;DHT22;51730;56.950;24.126;2022-09-29T03:07:07;8.20;99.90
65146;DHT22;51730;56.950;24.126;2022-09-29T03:09:34;8.10;99.90
65146;DHT22;51730;56.950;24.126;2022-09-29T03:12:01;8.20;99.90
65146;DHT22;51730;56.950;24.126;2022-09-29T03:14:28;8.40;99.90
65146;DHT22;51730;56.950;24.126;2022-09-29T03:16:55;8.30;99.90
65146;DHT22;51730;56.950;24.126;2022-09-29T03:19:21;8.30;99.90
65146;DHT22;51730;56.950;24.126;2022-09-29T03:21:48;8.40;99.90
65146;DHT22;51730;56.950;24.126;2022-09-29T03:24:16;8.40;99.90
65146;DHT22;51730;56.950;24.126;2022-09-29T03:26:43;8.40;99.90
65146;DHT22;51730;56.950;24.126;2022-09-29T03:29:10;8.50;99.90
65146;DHT22;51730;56.950;24.126;2022-09-29T03:31:39;8.50;99.90
65146;DHT22;51730;56.950;24.126;2022-09-29T03:34:06;8.50;99.90
65146;DHT22;51730;56.950;24.126;2022-09-29T03:36:33;8.50;99.90
65146;DHT22;51730;56.950;24.126;2022-09-29T03:39:00;8.40;99.90
65146;DHT22;51730;56.950;24.126;2022-09-29T03:41:27;8.40;99.90
65146;DHT22;51730;56.950;24.126;2022-09-29T03:43:54;8.40;99.90
65146;DHT22;51730;56.950;24.126;2022-09-29T03:46:20;8.40;99.90
65146;DHT22;51730;56.950;24.126;2022-09-29T03:48:47;8.40;99.90
65146;DHT22;51730;56.950;24.126;2022-09-29T03:51:14;8.50;99.90
65146;DHT22;51730;56.950;24.126;2022-09-29T03:53:41;8.50;99.90
65146;DHT22;51730;56.950;24.126;2022-09-29T03:56:08;8.40;99.90
65146;DHT22;51730;56.950;24.126;2022-09-29T03:58:35;8.50;99.90
65146;DHT22;51730;56.950;24.126;2022-09-29T04:01:02;8.50;99.90
65146;DHT22;51730;56.950;24.126;2022-09-29T04:03:28;8.50;99.90
65146;DHT22;51730;56.950;24.126;2022-09-29T04:05:55;8.40;99.90
65146;DHT22;51730;56.950;24.126;2022-09-29T04:08:22;8.40;99.90
65146;DHT22;51730;56.950;24.126;2022-09-29T04:10:49;8.40;99.90
65146;DHT22;51730;56.950;24.126;2022-09-29T04:13:16;8.30;99.90
65146;DHT22;51730;56.950;24.126;2022-09-29T04:15:46;8.40;99.90
65146;DHT22;51730;56.950;24.126;2022-09-29T04:18:13;8.30;99.90
65146;DHT22;51730;56.950;24.126;2022-09-29T04:20:40;8.40;99.90
65146;DHT22;51730;56.950;24.126;2022-09-29T04:23:07;8.40;99.90
65146;DHT22;51730;56.950;24.126;2022-09-29T04:25:34;8.30;99.90
65146;DHT22;51730;56.950;24.126;2022-09-29T04:28:01;8.40;99.90
65146;DHT22;51730;56.950;24.126;2022-09-29T04:30:28;8.40;99.90
65146;DHT22;51730;56.950;24.126;2022-09-29T04:32:55;8.40;99.90
65146;DHT22;51730;56.950;24.126;2022-09-29T04:35:22;8.30;99.90
65146;DHT22;51730;56.950;24.126;2022-09-29T04:37:49;8.40;99.90
65146;DHT22;51730;56.950;24.126;2022-09-29T04:40:20;8.50;99.90
65146;DHT22;51730;56.950;24.126;2022-09-29T04:42:47;8.50;99.90
65146;DHT22;51730;56.950;24.126;2022-09-29T04:45:14;8.30;99.90
65146;DHT22;51730;56.950;24.126;2022-09-29T04:47:41;8.30;99.90
65146;DHT22;51730;56.950;24.126;2022-09-29T04:50:07;8.20;99.90
65146;DHT22;51730;56.950;24.126;2022-09-29T04:52:35;8.10;99.90
65146;DHT22;51730;56.950;24.126;2022-09-29T04:55:03;8.10;99.90
65146;DHT22;51730;56.950;24.126;2022-09-29T04:57:30;8.10;99.90
65146;DHT22;51730;56.950;24.126;2022-09-29T04:59:57;8.10;99.90
65146;DHT22;51730;56.950;24.126;2022-09-29T05:02:24;8.10;99.90
65146;DHT22;51730;56.950;24.126;2022-09-29T05:04:51;8.10;99.90
65146;DHT22;51730;56.950;24.126;2022-09-29T05:07:18;8.00;99.90
65146;DHT22;51730;56.950;24.126;2022-09-29T05:09:44;8.00;99.90
65146;DHT22;51730;56.950;24.126;2022-09-29T05:12:11;7.90;99.90
65146;DHT22;51730;56.950;24.126;2022-09-29T05:14:39;8.00;99.90
65146;DHT22;51730;56.950;24.126;2022-09-29T05:17:06;8.00;99.90
65146;DHT22;51730;56.950;24.126;2022-09-29T05:19:33;8.00;99.90
65146;DHT22;51730;56.950;24.126;2022-09-29T05:22:00;8.00;99.90
65146;DHT22;51730;56.950;24.126;2022-09-29T05:24:27;8.00;99.90
65146;DHT22;51730;56.950;24.126;2022-09-29T05:26:54;8.00;99.90
65146;DHT22;51730;56.950;24.126;2022-09-29T05:29:24;8.00;99.90
65146;DHT22;51730;56.950;24.126;2022-09-29T05:31:51;8.00;99.90
65146;DHT22;51730;56.950;24.126;2022-09-29T05:34:18;8.00;99.90
65146;DHT22;51730;56.950;24.126;2022-09-29T05:36:45;8.00;99.90
65146;DHT22;51730;56.950;24.126;2022-09-29T05:39:12;7.90;99.90
65146;DHT22;51730;56.950;24.126;2022-09-29T05:41:39;8.00;99.90
65146;DHT22;51730;56.950;24.126;2022-09-29T05:44:06;8.00;99.90
65146;DHT22;51730;56.950;24.126;2022-09-29T05:46:33;8.00;99.90
65146;DHT22;51730;56.950;24.126;2022-09-29T05:49:00;8.10;99.90
65146;DHT22;51730;56.950;24.126;2022-09-29T05:51:27;8.10;99.90
65146;DHT22;51730;56.950;24.126;2022-09-29T05:53:54;8.10;99.90
65146;DHT22;51730;56.950;24.126;2022-09-29T05:56:23;8.10;99.90
65146;DHT22;51730;56.950;24.126;2022-09-29T05:58:50;8.10;99.90
65146;DHT22;51730;56.950;24.126;2022-09-29T06:01:20;8.10;99.90
65146;DHT22;51730;56.950;24.126;2022-09-29T06:03:48;8.20;99.90
65146;DHT22;51730;56.950;24.126;2022-09-29T06:06:25;8.20;99.90
65146;DHT22;51730;56.950;24.126;2022-09-29T06:08:53;8.20;99.90
65146;DHT22;51730;56.950;24.126;2022-09-29T06:11:23;8.20;99.90
65146;DHT22;51730;56.950;24.126;2022-09-29T06:13:52;8.20;99.90
65146;DHT22;51730;56.950;24.126;2022-09-29T06:16:21;8.30;99.90
65146;DHT22;51730;56.950;24.126;2022-09-29T06:18:48;8.30;99.90
65146;DHT22;51730;56.950;24.126;2022-09-29T06:21:23;8.30;99.90
65146;DHT22;51730;56.950;24.126;2022-09-29T06:23:52;8.40;99.90
65146;DHT22;51730;56.950;24.126;2022-09-29T06:26:20;8.40;99.90
65146;DHT22;51730;56.950;24.126;2022-09-29T06:28:53;8.50;99.90
65146;DHT22;51730;56.950;24.126;2022-09-29T06:31:23;8.50;99.90
65146;DHT22;51730;56.950;24.126;2022-09-29T06:33:50;8.50;99.90
65146;DHT22;51730;56.950;24.126;2022-09-29T06:36:20;8.60;99.90
65146;DHT22;51730;56.950;24.126;2022-09-29T06:39:08;8.60;99.90
65146;DHT22;51730;56.950;24.126;2022-09-29T06:41:36;8.70;99.90
65146;DHT22;51730;56.950;24.126;2022-09-29T06:44:03;8.70;99.90
65146;DHT22;51730;56.950;24.126;2022-09-29T06:46:30;8.70;99.90
65146;DHT22;51730;56.950;24.126;2022-09-29T06:48:57;8.70;99.90
65146;DHT22;51730;56.950;24.126;2022-09-29T06:51:25;8.70;99.90
65146;DHT22;51730;56.950;24.126;2022-09-29T06:54:06;8.70;99.90
65146;DHT22;51730;56.950;24.126;2022-09-29T06:56:38;8.80;99.90
65146;DHT22;51730;56.950;24.126;2022-09-29T06:59:06;8.80;99.90
65146;DHT22;51730;56.950;24.126;2022-09-29T07:01:33;9.00;99.90
65146;DHT22;51730;56.950;24.126;2022-09-29T07:04:00;9.00;99.90
65146;DHT22;51730;56.950;24.126;2022-09-29T07:06:28;8.90;99.90
65146;DHT22;51730;56.950;24.126;2022-09-29T07:08:57;8.90;99.90
65146;DHT22;51730;56.950;24.126;2022-09-29T07:11:27;9.00;99.90
65146;DHT22;51730;56.950;24.126;2022-09-29T07:13:54;9.10;99.90
65146;DHT22;51730;56.950;24.126;2022-09-29T07:16:22;9.20;99.90
65146;DHT22;51730;56.950;24.126;2022-09-29T07:18:52;9.30;99.90
65146;DHT22;51730;56.950;24.126;2022-09-29T07:21:19;9.40;99.90
65146;DHT22;51730;56.950;24.126;2022-09-29T07:23:48;9.50;99.90
65146;DHT22;51730;56.950;24.126;2022-09-29T07:26:16;9.50;99.90
65146;DHT22;51730;56.950;24.126;2022-09-29T07:28:44;9.50;99.90
65146;DHT22;51730;56.950;24.126;2022-09-29T07:31:13;9.50;99.90
65146;DHT22;51730;56.950;24.126;2022-09-29T07:33:43;9.40;99.90
65146;DHT22;51730;56.950;24.126;2022-09-29T07:36:11;9.50;99.90
65146;DHT22;51730;56.950;24.126;2022-09-29T07:38:38;9.50;99.90
65146;DHT22;51730;56.950;24.126;2022-09-29T07:41:07;9.50;99.90
65146;DHT22;51730;56.950;24.126;2022-09-29T07:43:35;9.40;99.90
65146;DHT22;51730;56.950;24.126;2022-09-29T07:46:02;9.50;99.90
65146;DHT22;51730;56.950;24.126;2022-09-29T07:48:30;9.50;99.90
65146;DHT22;51730;56.950;24.126;2022-09-29T07:53:30;9.60;99.90
65146;DHT22;51730;56.950;24.126;2022-09-29T07:56:11;9.60;99.90
65146;DHT22;51730;56.950;24.126;2022-09-29T07:58:39;9.70;99.90
65146;DHT22;51730;56.950;24.126;2022-09-29T08:01:07;9.70;99.90
65146;DHT22;51730;56.950;24.126;2022-09-29T08:03:37;9.70;99.90
65146;DHT22;51730;56.950;24.126;2022-09-29T08:06:09;9.70;99.90
65146;DHT22;51730;56.950;24.126;2022-09-29T08:08:40;9.70;99.90
65146;DHT22;51730;56.950;24.126;2022-09-29T08:11:18;9.80;99.90
65146;DHT22;51730;56.950;24.126;2022-09-29T08:13:57;9.80;99.90
65146;DHT22;51730;56.950;24.126;2022-09-29T08:16:24;9.70;99.90
65146;DHT22;51730;56.950;24.126;2022-09-29T08:18:51;9.80;99.90
65146;DHT22;51730;56.950;24.126;2022-09-29T08:21:18;9.90;99.90
65146;DHT22;51730;56.950;24.126;2022-09-29T08:23:45;10.00;99.90
65146;DHT22;51730;56.950;24.126;2022-09-29T08:26:15;10.10;99.90
65146;DHT22;51730;56.950;24.126;2022-09-29T08:28:43;10.00;99.90
65146;DHT22;51730;56.950;24.126;2022-09-29T08:31:12;9.90;99.90
65146;DHT22;51730;56.950;24.126;2022-09-29T08:33:40;9.90;99.90
65146;DHT22;51730;56.950;24.126;2022-09-29T08:36:07;9.80;99.90
65146;DHT22;51730;56.950;24.126;2022-09-29T08:38:45;9.80;99.90
65146;DHT22;51730;56.950;24.126;2022-09-29T08:43:49;9.80;99.90
65146;DHT22;51730;56.950;24.126;2022-09-29T08:46:34;9.80;99.90
65146;DHT22;51730;56.950;24.126;2022-09-29T08:49:09;9.70;99.90
65146;DHT22;51730;56.950;24.126;2022-09-29T08:51:47;9.70;99.90
65146;DHT22;51730;56.950;24.126;2022-09-29T08:57:19;9.70;99.90
65146;DHT22;51730;56.950;24.126;2022-09-29T08:59:53;9.70;99.90
65146;DHT22;51730;56.950;24.126;2022-09-29T09:11:22;9.70;99.90
65146;DHT22;51730;56.950;24.126;2022-09-29T09:22:23;9.80;99.90
65146;DHT22;51730;56.950;24.126;2022-09-29T09:25:00;9.60;99.90
65146;DHT22;51730;56.950;24.126;2022-09-29T09:27:35;9.60;99.90
65146;DHT22;51730;56.950;24.126;2022-09-29T09:30:12;9.60;99.90
65146;DHT22;51730;56.950;24.126;2022-09-29T09:33:03;9.50;99.90
65146;DHT22;51730;56.950;24.126;2022-09-29T09:35:48;9.50;99.90
65146;DHT22;51730;56.950;24.126;2022-09-29T09:38:33;9.50;99.90
65146;DHT22;51730;56.950;24.126;2022-09-29T09:41:03;9.50;99.90
65146;DHT22;51730;56.950;24.126;2022-09-29T09:43:35;9.50;99.90
65146;DHT22;51730;56.950;24.126;2022-09-29T09:46:14;9.50;99.90
65146;DHT22;51730;56.950;24.126;2022-09-29T09:48:55;9.60;99.90
65146;DHT22;51730;56.950;24.126;2022-09-29T09:52:19;9.60;99.90
65146;DHT22;51730;56.950;24.126;2022-09-29T09:54:42;9.60;99.90
65146;DHT22;51730;56.950;24.126;2022-09-29T09:57:41;9.60;99.90
65146;DHT22;51730;56.950;24.126;2022-09-29T10:00:21;9.60;99.90
65146;DHT22;51730;56.950;24.126;2022-09-29T10:02:51;9.70;99.90
65146;DHT22;51730;56.950;24.126;2022-09-29T10:05:21;9.70;99.90
65146;DHT22;51730;56.950;24.126;2022-09-29T10:07:50;9.70;99.90
65146;DHT22;51730;56.950;24.126;2022-09-29T10:10:22;9.80;99.90
65146;DHT22;51730;56.950;24.126;2022-09-29T10:13:11;9.80;99.90
65146;DHT22;51730;56.950;24.126;2022-09-29T10:18:12;9.90;99.90
65146;DHT22;51730;56.950;24.126;2022-09-29T10:20:40;9.90;99.90
65146;DHT22;51730;56.950;24.126;2022-09-29T10:23:19;9.90;99.90
65146;DHT22;51730;56.950;24.126;2022-09-29T10:25:52;10.00;99.90
65146;DHT22;51730;56.950;24.126;2022-09-29T10:28:21;10.00;99.90
65146;DHT22;51730;56.950;24.126;2022-09-29T10:30:48;10.00;99.90
65146;DHT22;51730;56.950;24.126;2022-09-29T10:33:21;10.10;99.90
65146;DHT22;51730;56.950;24.126;2022-09-29T10:35:50;10.20;99.90
65146;DHT22;51730;56.950;24.126;2022-09-29T10:38:23;10.20;99.90
65146;DHT22;51730;56.950;24.126;2022-09-29T10:41:03;10.30;99.90
65146;DHT22;51730;56.950;24.126;2022-09-29T10:43:35;10.30;99.90
65146;DHT22;51730;56.950;24.126;2022-09-29T10:46:05;10.30;99.90
65146;DHT22;51730;56.950;24.126;2022-09-29T10:48:32;10.30;99.90
65146;DHT22;51730;56.950;24.126;2022-09-29T10:51:01;10.40;99.90
65146;DHT22;51730;56.950;24.126;2022-09-29T10:53:39;10.40;99.90
65146;DHT22;51730;56.950;24.126;2022-09-29T10:58:44;10.40;99.90
65146;DHT22;51730;56.950;24.126;2022-09-29T11:01:32;10.50;99.90
65146;DHT22;51730;56.950;24.126;2022-09-29T11:04:06;10.60;99.90
65146;DHT22;51730;56.950;24.126;2022-09-29T11:06:40;10.60;99.90
65146;DHT22;51730;56.950;24.126;2022-09-29T11:16:58;10.50;99.90
65146;DHT22;51730;56.950;24.126;2022-09-29T11:19:28;10.50;99.90
65146;DHT22;51730;56.950;24.126;2022-09-29T11:25:03;10.70;99.90
65146;DHT22;51730;56.950;24.126;2022-09-29T11:33:41;10.70;99.90
65146;DHT22;51730;56.950;24.126;2022-09-29T11:36:21;10.70;99.90
65146;DHT22;51730;56.950;24.126;2022-09-29T11:41:39;10.70;99.90
65146;DHT22;51730;56.950;24.126;2022-09-29T11:47:11;10.70;99.90
65146;DHT22;51730;56.950;24.126;2022-09-29T11:55:06;10.70;99.90
65146;DHT22;51730;56.950;24.126;2022-09-29T12:03:51;10.70;99.90
65146;DHT22;51730;56.950;24.126;2022-09-29T12:09:14;10.60;99.90
65146;DHT22;51730;56.950;24.126;2022-09-29T12:12:09;10.70;99.90
65146;DHT22;51730;56.950;24.126;2022-09-29T12:17:27;10.70;99.90
65146;DHT22;51730;56.950;24.126;2022-09-29T12:20:56;10.80;99.90
65146;DHT22;51730;56.950;24.126;2022-09-29T12:22:53;10.70;99.90
65146;DHT22;51730;56.950;24.126;2022-09-29T12:25:28;10.70;99.90
65146;DHT22;51730;56.950;24.126;2022-09-29T12:27:59;10.80;99.90
65146;DHT22;51730;56.950;24.126;2022-09-29T12:30:32;10.80;99.90
65146;DHT22;51730;56.950;24.126;2022-09-29T12:38:30;10.90;99.90
65146;DHT22;51730;56.950;24.126;2022-09-29T12:41:31;10.80;99.90
65146;DHT22;51730;56.950;24.126;2022-09-29T12:46:55;10.80;99.90
65146;DHT22;51730;56.950;24.126;2022-09-29T12:49:42;10.80;99.90
65146;DHT22;51730;56.950;24.126;2022-09-29T12:52:22;10.80;99.90
65146;DHT22;51730;56.950;24.126;2022-09-29T12:54:56;10.80;99.90
65146;DHT22;51730;56.950;24.126;2022-09-29T12:57:37;10.80;99.90
65146;DHT22;51730;56.950;24.126;2022-09-29T13:00:14;10.90;99.90
65146;DHT22;51730;56.950;24.126;2022-09-29T13:14:18;10.80;99.90
65146;DHT22;51730;56.950;24.126;2022-09-29T13:23:04;10.90;99.90
65146;DHT22;51730;56.950;24.126;2022-09-29T13:25:56;10.90;99.90
65146;DHT22;51730;56.950;24.126;2022-09-29T13:28:32;11.00;99.90
65146;DHT22;51730;56.950;24.126;2022-09-29T13:31:04;10.90;99.90
65146;DHT22;51730;56.950;24.126;2022-09-29T13:33:33;11.00;99.90
65146;DHT22;51730;56.950;24.126;2022-09-29T13:36:00;11.00;99.90
65146;DHT22;51730;56.950;24.126;2022-09-29T13:38:30;11.00;99.90
65146;DHT22;51730;56.950;24.126;2022-09-29T13:41:31;11.10;99.90
65146;DHT22;51730;56.950;24.126;2022-09-29T13:52:40;11.00;99.90
65146;DHT22;51730;56.950;24.126;2022-09-29T13:54:48;11.00;99.90
65146;DHT22;51730;56.950;24.126;2022-09-29T14:02:33;10.90;99.90
65146;DHT22;51730;56.950;24.126;2022-09-29T14:05:02;10.90;99.90
65146;DHT22;51730;56.950;24.126;2022-09-29T14:07:42;10.90;99.90
65146;DHT22;51730;56.950;24.126;2022-09-29T14:13:03;10.90;99.90
65146;DHT22;51730;56.950;24.126;2022-09-29T14:15:34;11.00;99.90
65146;DHT22;51730;56.950;24.126;2022-09-29T14:18:10;11.00;99.90
65146;DHT22;51730;56.950;24.126;2022-09-29T14:21:08;11.00;99.90
65146;DHT22;51730;56.950;24.126;2022-09-29T14:23:46;11.00;99.90
65146;DHT22;51730;56.950;24.126;2022-09-29T14:26:40;11.00;99.90
65146;DHT22;51730;56.950;24.126;2022-09-29T14:29:21;11.00;99.90
65146;DHT22;51730;56.950;24.126;2022-09-29T14:31:56;11.00;99.90
65146;DHT22;51730;56.950;24.126;2022-09-29T14:34:28;11.00;99.90
65146;DHT22;51730;56.950;24.126;2022-09-29T14:36:57;11.00;99.90
65146;DHT22;51730;56.950;24.126;2022-09-29T14:39:26;11.00;99.90
65146;DHT22;51730;56.950;24.126;2022-09-29T14:41:55;11.00;99.90
65146;DHT22;51730;56.950;24.126;2022-09-29T14:44:25;11.00;99.90
65146;DHT22;51730;56.950;24.126;2022-09-29T14:47:33;11.00;99.90
65146;DHT22;51730;56.950;24.126;2022-09-29T14:56:18;11.00;99.90
65146;DHT22;51730;56.950;24.126;2022-09-29T14:59:17;11.00;99.90
65146;DHT22;51730;56.950;24.126;2022-09-29T15:04:37;11.00;99.90
65146;DHT22;51730;56.950;24.126;2022-09-29T15:07:10;11.00;99.90
65146;DHT22;51730;56.950;24.126;2022-09-29T15:09:38;11.00;99.90
65146;DHT22;51730;56.950;24.126;2022-09-29T15:15:30;11.10;99.90
65146;DHT22;51730;56.950;24.126;2022-09-29T15:21:18;11.10;99.90
65146;DHT22;51730;56.950;24.126;2022-09-29T15:26:35;11.00;99.90
65146;DHT22;51730;56.950;24.126;2022-09-29T15:29:07;11.00;99.90
65146;DHT22;51730;56.950;24.126;2022-09-29T15:31:44;11.00;99.90
65146;DHT22;51730;56.950;24.126;2022-09-29T15:34:18;11.00;99.90
65146;DHT22;51730;56.950;24.126;2022-09-29T15:36:49;11.00;99.90
65146;DHT22;51730;56.950;24.126;2022-09-29T15:42:42;11.00;99.90
65146;DHT22;51730;56.950;24.126;2022-09-29T15:47:28;11.00;99.90
65146;DHT22;51730;56.950;24.126;2022-09-29T15:50:16;11.00;99.90
65146;DHT22;51730;56.950;24.126;2022-09-29T15:52:43;11.00;99.90
65146;DHT22;51730;56.950;24.126;2022-09-29T15:55:15;11.00;99.90
65146;DHT22;51730;56.950;24.126;2022-09-29T15:57:45;11.00;99.90
65146;DHT22;51730;56.950;24.126;2022-09-29T16:05:40;11.00;99.90
65146;DHT22;51730;56.950;24.126;2022-09-29T16:08:22;10.90;99.90
65146;DHT22;51730;56.950;24.126;2022-09-29T16:11:00;10.80;99.90
65146;DHT22;51730;56.950;24.126;2022-09-29T16:13:33;10.80;99.90
65146;DHT22;51730;56.950;24.126;2022-09-29T16:16:04;10.90;99.90
65146;DHT22;51730;56.950;24.126;2022-09-29T16:18:52;10.80;99.90
65146;DHT22;51730;56.950;24.126;2022-09-29T16:21:22;10.80;99.90
65146;DHT22;51730;56.950;24.126;2022-09-29T16:24:18;10.80;99.90
65146;DHT22;51730;56.950;24.126;2022-09-29T16:26:47;10.60;99.90
65146;DHT22;51730;56.950;24.126;2022-09-29T16:31:45;10.60;99.90
65146;DHT22;51730;56.950;24.126;2022-09-29T16:36:48;10.60;99.90
65146;DHT22;51730;56.950;24.126;2022-09-29T16:39:16;10.50;99.90
65146;DHT22;51730;56.950;24.126;2022-09-29T16:41:53;10.50;99.90
65146;DHT22;51730;56.950;24.126;2022-09-29T16:44:30;10.50;99.90
65146;DHT22;51730;56.950;24.126;2022-09-29T16:52:39;10.50;99.90
65146;DHT22;51730;56.950;24.126;2022-09-29T16:58:10;10.40;99.90
65146;DHT22;51730;56.950;24.126;2022-09-29T17:00:39;10.40;99.90
65146;DHT22;51730;56.950;24.126;2022-09-29T17:03:06;10.40;99.90
65146;DHT22;51730;56.950;24.126;2022-09-29T17:05:39;10.40;99.90
65146;DHT22;51730;56.950;24.126;2022-09-29T17:08:26;10.40;99.90
65146;DHT22;51730;56.950;24.126;2022-09-29T17:10:55;10.40;99.90
65146;DHT22;51730;56.950;24.126;2022-09-29T17:13:23;10.40;99.90
65146;DHT22;51730;56.950;24.126;2022-09-29T17:15:51;10.40;99.90
65146;DHT22;51730;56.950;24.126;2022-09-29T17:18:20;10.40;99.90
65146;DHT22;51730;56.950;24.126;2022-09-29T17:20:48;10.40;99.90
65146;DHT22;51730;56.950;24.126;2022-09-29T17:23:15;10.40;99.90
65146;DHT22;51730;56.950;24.126;2022-09-29T17:25:44;10.40;99.90
65146;DHT22;51730;56.950;24.126;2022-09-29T17:28:17;10.40;99.90
65146;DHT22;51730;56.950;24.126;2022-09-29T17:30:46;10.40;99.90
65146;DHT22;51730;56.950;24.126;2022-09-29T17:33:15;10.40;99.90
65146;DHT22;51730;56.950;24.126;2022-09-29T17:35:44;10.40;99.90
65146;DHT22;51730;56.950;24.126;2022-09-29T17:38:17;10.40;99.90
65146;DHT22;51730;56.950;24.126;2022-09-29T17:40:57;10.40;99.90
65146;DHT22;51730;56.950;24.126;2022-09-29T17:43:28;10.30;99.90
65146;DHT22;51730;56.950;24.126;2022-09-29T17:45:58;10.30;99.90
65146;DHT22;51730;56.950;24.126;2022-09-29T17:48:26;10.20;99.90
65146;DHT22;51730;56.950;24.126;2022-09-29T17:50:54;10.20;99.90
65146;DHT22;51730;56.950;24.126;2022-09-29T17:53:23;10.10;99.90
65146;DHT22;51730;56.950;24.126;2022-09-29T17:55:52;10.10;99.90
65146;DHT22;51730;56.950;24.126;2022-09-29T17:58:20;10.10;99.90
65146;DHT22;51730;56.950;24.126;2022-09-29T18:00:50;10.10;99.90
65146;DHT22;51730;56.950;24.126;2022-09-29T18:03:19;10.10;99.90
65146;DHT22;51730;56.950;24.126;2022-09-29T18:05:52;10.10;99.90
65146;DHT22;51730;56.950;24.126;2022-09-29T18:08:24;10.20;99.90
65146;DHT22;51730;56.950;24.126;2022-09-29T18:13:24;10.20;99.90
65146;DHT22;51730;56.950;24.126;2022-09-29T18:15:53;10.30;99.90
65146;DHT22;51730;56.950;24.126;2022-09-29T18:18:21;10.30;99.90
65146;DHT22;51730;56.950;24.126;2022-09-29T18:20:49;10.30;99.90
65146;DHT22;51730;56.950;24.126;2022-09-29T18:23:17;10.30;99.90
65146;DHT22;51730;56.950;24.126;2022-09-29T18:25:46;10.30;99.90
65146;DHT22;51730;56.950;24.126;2022-09-29T18:28:14;10.40;99.90
65146;DHT22;51730;56.950;24.126;2022-09-29T18:30:44;10.40;99.90
65146;DHT22;51730;56.950;24.126;2022-09-29T18:33:15;10.40;99.90
65146;DHT22;51730;56.950;24.126;2022-09-29T18:35:49;10.40;99.90
65146;DHT22;51730;56.950;24.126;2022-09-29T18:38:16;10.40;99.90
65146;DHT22;51730;56.950;24.126;2022-09-29T18:40:43;10.40;99.90
65146;DHT22;51730;56.950;24.126;2022-09-29T18:43:13;10.40;99.90
65146;DHT22;51730;56.950;24.126;2022-09-29T18:45:40;10.40;99.90
65146;DHT22;51730;56.950;24.126;2022-09-29T18:48:13;10.40;99.90
65146;DHT22;51730;56.950;24.126;2022-09-29T18:50:42;10.40;99.90
65146;DHT22;51730;56.950;24.126;2022-09-29T18:53:11;10.50;99.90
65146;DHT22;51730;56.950;24.126;2022-09-29T18:55:38;10.40;99.90
65146;DHT22;51730;56.950;24.126;2022-09-29T18:58:15;10.40;99.90
65146;DHT22;51730;56.950;24.126;2022-09-29T19:00:48;10.40;99.90
65146;DHT22;51730;56.950;24.126;2022-09-29T19:03:16;10.50;99.90
65146;DHT22;51730;56.950;24.126;2022-09-29T19:05:44;10.50;99.90
65146;DHT22;51730;56.950;24.126;2022-09-29T19:08:13;10.50;99.90